createdAt,value
2019-02-07T00:00:11.856Z,0.00
2019-02-07T00:01:11.892Z,0.00
2019-02-07T00:02:11.931Z,0.00
2019-02-07T00:03:11.961Z,0.00
2019-02-07T00:04:11.996Z,0.00
2019-02-07T00:05:12.136Z,0.00
2019-02-07T00:06:12.069Z,0.00
2019-02-07T00:07:12.102Z,0.00
2019-02-07T00:08:12.137Z,0.00
2019-02-07T00:09:12.172Z,0.00
2019-02-07T00:10:12.210Z,0.00
2019-02-07T00:11:12.245Z,0.00
2019-02-07T00:12:12.286Z,0.00
2019-02-07T00:13:12.319Z,0.00
2019-02-07T00:14:12.353Z,0.00
2019-02-07T00:15:12.386Z,0.00
2019-02-07T00:16:12.435Z,0.00
2019-02-07T00:17:12.457Z,0.00
2019-02-07T00:18:12.490Z,0.00
2019-02-07T00:19:12.526Z,0.00
2019-02-07T00:20:12.561Z,0.00
2019-02-07T00:21:12.596Z,0.00
2019-02-07T00:22:12.634Z,0.00
2019-02-07T00:23:12.672Z,0.00
2019-02-07T00:24:12.836Z,0.00
2019-02-07T00:25:12.739Z,0.00
2019-02-07T00:26:12.775Z,0.00
2019-02-07T00:27:12.816Z,0.00
2019-02-07T00:28:12.848Z,0.00
2019-02-07T00:29:12.888Z,0.00
2019-02-07T00:30:12.917Z,0.00
2019-02-07T00:31:12.957Z,0.00
2019-02-07T00:32:12.991Z,0.00
2019-02-07T00:33:13.025Z,0.00
2019-02-07T00:34:13.057Z,0.00
2019-02-07T00:35:13.096Z,0.00
2019-02-07T00:36:13.186Z,0.00
2019-02-07T00:37:13.168Z,0.00
2019-02-07T00:38:13.206Z,0.00
2019-02-07T00:39:13.235Z,0.00
2019-02-07T00:40:13.273Z,0.00
2019-02-07T00:41:13.325Z,0.00
2019-02-07T00:42:13.343Z,0.00
2019-02-07T00:43:13.445Z,0.00
2019-02-07T00:44:13.410Z,0.00
2019-02-07T00:45:13.448Z,0.00
2019-02-07T00:46:13.482Z,0.00
2019-02-07T00:47:13.517Z,0.00
2019-02-07T00:48:13.552Z,0.00
2019-02-07T00:49:13.587Z,0.00
2019-02-07T00:50:13.631Z,0.00
2019-02-07T00:51:13.668Z,0.00
2019-02-07T00:52:13.698Z,0.00
2019-02-07T00:53:13.731Z,0.00
2019-02-07T00:54:13.770Z,0.00
2019-02-07T00:55:13.811Z,0.00
2019-02-07T00:56:13.837Z,0.00
2019-02-07T00:57:13.876Z,0.00
2019-02-07T00:58:13.914Z,0.00
2019-02-07T00:59:13.944Z,0.00
2019-02-07T01:00:13.980Z,0.00
2019-02-07T01:01:14.015Z,0.00
2019-02-07T01:02:14.051Z,0.00
2019-02-07T01:03:14.088Z,0.00
2019-02-07T01:04:14.131Z,0.00
2019-02-07T01:05:14.155Z,0.00
2019-02-07T01:06:14.194Z,0.00
2019-02-07T01:07:14.228Z,0.00
2019-02-07T01:08:14.262Z,0.00
2019-02-07T01:09:14.305Z,0.00
2019-02-07T01:10:14.333Z,0.00
2019-02-07T01:11:14.368Z,0.00
2019-02-07T01:12:14.405Z,0.00
2019-02-07T01:13:14.442Z,0.00
2019-02-07T01:14:14.475Z,0.00
2019-02-07T01:15:14.513Z,0.00
2019-02-07T01:16:14.552Z,0.00
2019-02-07T01:17:14.581Z,0.00
2019-02-07T01:18:14.624Z,0.00
2019-02-07T01:19:14.653Z,0.00
2019-02-07T01:20:14.689Z,0.00
2019-02-07T01:21:14.724Z,0.00
2019-02-07T01:22:14.760Z,0.00
2019-02-07T01:23:14.793Z,0.00
2019-02-07T01:24:14.849Z,0.00
2019-02-07T01:25:14.867Z,0.00
2019-02-07T01:26:14.902Z,0.00
2019-02-07T01:27:14.935Z,0.00
2019-02-07T01:28:14.971Z,0.00
2019-02-07T01:29:15.006Z,0.00
2019-02-07T01:30:15.042Z,0.00
2019-02-07T01:31:15.078Z,0.00
2019-02-07T01:32:15.123Z,0.00
2019-02-07T01:33:15.150Z,0.00
2019-02-07T01:34:15.185Z,0.00
2019-02-07T01:35:15.221Z,0.00
2019-02-07T01:36:15.260Z,0.00
2019-02-07T01:37:15.291Z,0.00
2019-02-07T01:38:15.327Z,0.00
2019-02-07T01:39:15.361Z,0.00
2019-02-07T01:40:15.395Z,0.00
2019-02-07T01:41:15.431Z,0.00
2019-02-07T01:42:15.471Z,0.00
2019-02-07T01:43:15.509Z,0.00
2019-02-07T01:44:15.540Z,0.00
2019-02-07T01:45:15.581Z,0.00
2019-02-07T01:46:15.606Z,0.00
2019-02-07T01:47:15.643Z,0.00
2019-02-07T01:48:15.677Z,0.00
2019-02-07T01:49:15.721Z,0.00
2019-02-07T01:50:15.748Z,0.00
2019-02-07T01:51:15.792Z,0.00
2019-02-07T01:52:15.829Z,0.00
2019-02-07T01:53:15.857Z,0.00
2019-02-07T01:54:15.891Z,0.00
2019-02-07T01:55:15.933Z,0.00
2019-02-07T01:56:15.960Z,0.00
2019-02-07T01:57:15.998Z,0.00
2019-02-07T01:58:16.031Z,0.00
2019-02-07T01:59:16.066Z,0.00
2019-02-07T02:00:16.102Z,0.00
2019-02-07T02:01:16.138Z,0.00
2019-02-07T02:02:16.174Z,0.00
2019-02-07T02:03:16.208Z,0.00
2019-02-07T02:04:16.244Z,0.00
2019-02-07T02:05:16.280Z,0.00
2019-02-07T02:06:16.314Z,0.00
2019-02-07T02:07:16.351Z,0.00
2019-02-07T02:08:16.385Z,0.00
2019-02-07T02:09:16.424Z,0.00
2019-02-07T02:10:16.456Z,0.00
2019-02-07T02:11:16.492Z,0.00
2019-02-07T02:12:16.526Z,0.00
2019-02-07T02:13:16.561Z,0.00
2019-02-07T02:14:16.596Z,0.00
2019-02-07T02:15:24.143Z,0.00
2019-02-07T02:16:16.667Z,0.00
2019-02-07T02:17:16.701Z,0.00
2019-02-07T02:18:16.739Z,0.00
2019-02-07T02:19:16.773Z,0.00
2019-02-07T02:20:16.807Z,0.00
2019-02-07T02:21:16.842Z,0.00
2019-02-07T02:22:16.879Z,0.00
2019-02-07T02:23:16.913Z,0.00
2019-02-07T02:24:16.948Z,0.00
2019-02-07T02:25:16.994Z,0.00
2019-02-07T02:26:17.024Z,0.00
2019-02-07T02:27:17.056Z,0.00
2019-02-07T02:28:17.094Z,0.00
2019-02-07T02:29:17.128Z,0.00
2019-02-07T02:30:17.163Z,0.00
2019-02-07T02:31:17.203Z,0.00
2019-02-07T02:32:17.234Z,0.00
2019-02-07T02:33:17.268Z,0.00
2019-02-07T02:34:17.303Z,0.00
2019-02-07T02:35:17.435Z,0.00
2019-02-07T02:36:17.373Z,0.00
2019-02-07T02:37:17.410Z,0.00
2019-02-07T02:38:17.447Z,0.00
2019-02-07T02:39:17.481Z,0.00
2019-02-07T02:40:17.517Z,0.00
2019-02-07T02:41:17.554Z,0.00
2019-02-07T02:42:17.588Z,0.00
2019-02-07T02:43:17.625Z,0.00
2019-02-07T02:44:17.658Z,0.00
2019-02-07T02:45:17.698Z,0.00
2019-02-07T02:46:17.730Z,0.00
2019-02-07T02:47:17.766Z,0.00
2019-02-07T02:48:17.800Z,0.00
2019-02-07T02:49:17.835Z,0.00
2019-02-07T02:50:17.978Z,0.00
2019-02-07T02:51:17.907Z,0.00
2019-02-07T02:52:17.940Z,0.00
2019-02-07T02:53:17.978Z,0.00
2019-02-07T02:54:18.013Z,0.00
2019-02-07T02:55:18.050Z,0.00
2019-02-07T02:56:18.090Z,0.00
2019-02-07T02:57:18.118Z,0.00
2019-02-07T02:58:18.154Z,0.00
2019-02-07T02:59:18.190Z,0.00
2019-02-07T03:00:18.225Z,0.00
2019-02-07T03:01:18.262Z,0.00
2019-02-07T03:02:18.298Z,0.00
2019-02-07T03:03:18.335Z,0.00
2019-02-07T03:04:18.367Z,0.00
2019-02-07T03:05:18.406Z,0.00
2019-02-07T03:06:18.443Z,0.00
2019-02-07T03:07:18.473Z,0.00
2019-02-07T03:08:18.509Z,0.00
2019-02-07T03:09:18.545Z,0.00
2019-02-07T03:10:18.581Z,0.00
2019-02-07T03:11:18.619Z,0.00
2019-02-07T03:12:18.670Z,0.00
2019-02-07T03:13:18.689Z,0.00
2019-02-07T03:14:18.730Z,0.00
2019-02-07T03:15:18.760Z,0.00
2019-02-07T03:16:18.792Z,0.00
2019-02-07T03:17:18.830Z,0.00
2019-02-07T03:18:19.375Z,0.00
2019-02-07T03:19:18.912Z,0.00
2019-02-07T03:20:18.934Z,0.00
2019-02-07T03:21:18.972Z,0.00
2019-02-07T03:22:19.007Z,0.00
2019-02-07T03:23:19.157Z,0.00
2019-02-07T03:24:19.077Z,0.00
2019-02-07T03:25:19.112Z,0.00
2019-02-07T03:26:19.147Z,0.00
2019-02-07T03:27:19.189Z,0.00
2019-02-07T03:28:19.218Z,0.00
2019-02-07T03:29:19.260Z,0.00
2019-02-07T03:30:19.310Z,0.00
2019-02-07T03:31:19.330Z,0.00
2019-02-07T03:32:19.361Z,0.00
2019-02-07T03:33:19.568Z,0.00
2019-02-07T03:34:19.432Z,0.00
2019-02-07T03:35:19.466Z,0.00
2019-02-07T03:36:19.501Z,0.00
2019-02-07T03:37:19.541Z,0.00
2019-02-07T03:38:19.575Z,0.00
2019-02-07T03:39:19.610Z,0.00
2019-02-07T03:40:19.645Z,0.00
2019-02-07T03:41:19.680Z,0.00
2019-02-07T03:42:19.766Z,0.00
2019-02-07T03:43:19.749Z,0.00
2019-02-07T03:44:19.791Z,0.00
2019-02-07T03:45:19.831Z,0.00
2019-02-07T03:46:19.860Z,0.00
2019-02-07T03:47:19.895Z,0.00
2019-02-07T03:48:19.938Z,0.00
2019-02-07T03:49:19.966Z,0.00
2019-02-07T03:50:20.001Z,0.00
2019-02-07T03:51:20.037Z,0.00
2019-02-07T03:52:20.071Z,0.00
2019-02-07T03:53:20.105Z,0.00
2019-02-07T03:54:20.142Z,0.00
2019-02-07T03:55:20.174Z,0.00
2019-02-07T03:56:20.227Z,0.00
2019-02-07T03:57:20.245Z,0.00
2019-02-07T03:58:20.284Z,0.00
2019-02-07T03:59:20.318Z,0.00
2019-02-07T04:00:20.365Z,0.00
2019-02-07T04:01:20.387Z,0.00
2019-02-07T04:02:20.423Z,0.00
2019-02-07T04:03:20.457Z,0.00
2019-02-07T04:04:20.503Z,0.00
2019-02-07T04:05:20.536Z,0.00
2019-02-07T04:06:20.566Z,0.00
2019-02-07T04:07:20.599Z,0.00
2019-02-07T04:08:20.639Z,0.00
2019-02-07T04:09:20.672Z,0.00
2019-02-07T04:10:20.709Z,0.00
2019-02-07T04:11:20.743Z,0.00
2019-02-07T04:12:20.786Z,0.00
2019-02-07T04:13:20.815Z,0.00
2019-02-07T04:14:20.859Z,0.00
2019-02-07T04:15:20.884Z,0.00
2019-02-07T04:16:20.921Z,0.00
2019-02-07T04:17:20.963Z,0.00
2019-02-07T04:18:20.993Z,0.00
2019-02-07T04:19:21.028Z,0.00
2019-02-07T04:20:21.233Z,0.00
2019-02-07T04:21:21.100Z,0.00
2019-02-07T04:22:21.138Z,0.00
2019-02-07T04:23:21.172Z,0.00
2019-02-07T04:24:21.207Z,0.00
2019-02-07T04:25:21.242Z,0.00
2019-02-07T04:26:21.285Z,0.00
2019-02-07T04:27:21.313Z,0.00
2019-02-07T04:28:21.357Z,0.00
2019-02-07T04:29:21.384Z,0.00
2019-02-07T04:30:21.421Z,0.00
2019-02-07T04:31:21.458Z,0.00
2019-02-07T04:32:21.489Z,0.00
2019-02-07T04:33:21.539Z,0.00
2019-02-07T04:34:21.561Z,0.00
2019-02-07T04:35:21.595Z,0.00
2019-02-07T04:36:21.633Z,0.00
2019-02-07T04:37:21.667Z,0.00
2019-02-07T04:38:21.702Z,0.00
2019-02-07T04:39:21.739Z,0.00
2019-02-07T04:40:21.775Z,0.00
2019-02-07T04:41:21.813Z,0.00
2019-02-07T04:42:21.859Z,0.00
2019-02-07T04:43:21.890Z,0.00
2019-02-07T04:44:21.917Z,0.00
2019-02-07T04:45:21.954Z,0.00
2019-02-07T04:46:27.048Z,0.00
2019-02-07T04:47:22.025Z,0.00
2019-02-07T04:48:22.060Z,0.00
2019-02-07T04:49:22.096Z,0.00
2019-02-07T04:50:22.132Z,0.00
2019-02-07T04:51:22.167Z,0.00
2019-02-07T04:52:22.203Z,0.00
2019-02-07T04:53:22.246Z,0.00
2019-02-07T04:54:22.278Z,0.00
2019-02-07T04:55:22.312Z,0.00
2019-02-07T04:56:22.346Z,0.00
2019-02-07T04:57:22.382Z,0.00
2019-02-07T04:58:22.426Z,0.00
2019-02-07T04:59:22.451Z,0.00
2019-02-07T05:00:22.487Z,0.00
2019-02-07T05:01:22.523Z,0.00
2019-02-07T05:02:22.575Z,0.00
2019-02-07T05:03:22.593Z,0.00
2019-02-07T05:04:22.629Z,0.00
2019-02-07T05:05:22.666Z,0.00
2019-02-07T05:06:22.706Z,0.00
2019-02-07T05:07:22.735Z,0.00
2019-02-07T05:08:22.770Z,0.00
2019-02-07T05:09:22.805Z,0.00
2019-02-07T05:10:23.101Z,0.00
2019-02-07T05:11:22.877Z,0.00
2019-02-07T05:12:22.915Z,0.00
2019-02-07T05:13:22.957Z,0.00
2019-02-07T05:14:22.985Z,0.00
2019-02-07T05:15:23.023Z,0.00
2019-02-07T05:16:23.055Z,0.00
2019-02-07T05:17:23.091Z,0.00
2019-02-07T05:18:23.126Z,0.00
2019-02-07T05:19:23.161Z,0.00
2019-02-07T05:20:23.197Z,0.00
2019-02-07T05:21:23.241Z,0.00
2019-02-07T05:22:23.267Z,0.00
2019-02-07T05:23:23.303Z,0.00
2019-02-07T05:24:23.341Z,0.00
2019-02-07T05:25:23.373Z,0.00
2019-02-07T05:26:23.419Z,0.00
2019-02-07T05:27:23.448Z,0.00
2019-02-07T05:28:23.484Z,0.00
2019-02-07T05:29:23.517Z,0.00
2019-02-07T05:30:23.560Z,0.00
2019-02-07T05:31:23.586Z,0.00
2019-02-07T05:32:23.625Z,0.00
2019-02-07T05:33:23.660Z,0.00
2019-02-07T05:34:23.696Z,0.00
2019-02-07T05:35:23.732Z,0.00
2019-02-07T05:36:23.767Z,0.00
2019-02-07T05:37:23.800Z,0.00
2019-02-07T05:38:23.837Z,0.00
2019-02-07T05:39:23.872Z,0.00
2019-02-07T05:40:23.908Z,0.00
2019-02-07T05:41:23.947Z,0.00
2019-02-07T05:42:23.987Z,0.00
2019-02-07T05:43:24.165Z,0.00
2019-02-07T05:44:24.051Z,0.00
2019-02-07T05:45:24.090Z,0.00
2019-02-07T05:46:24.130Z,0.00
2019-02-07T05:47:24.157Z,0.00
2019-02-07T05:48:24.192Z,0.00
2019-02-07T05:49:24.228Z,0.00
2019-02-07T05:50:24.264Z,0.00
2019-02-07T05:51:24.301Z,0.00
2019-02-07T05:52:24.336Z,0.00
2019-02-07T05:53:24.372Z,0.00
2019-02-07T05:54:24.407Z,0.00
2019-02-07T05:55:24.449Z,0.00
2019-02-07T05:56:24.479Z,0.00
2019-02-07T05:57:24.515Z,0.00
2019-02-07T05:58:24.551Z,0.00
2019-02-07T05:59:24.660Z,0.00
2019-02-07T06:00:24.622Z,0.00
2019-02-07T06:01:24.671Z,0.00
2019-02-07T06:02:24.697Z,0.00
2019-02-07T06:03:24.736Z,0.00
2019-02-07T06:04:24.771Z,0.00
2019-02-07T06:05:24.809Z,0.00
2019-02-07T06:06:24.838Z,0.00
2019-02-07T06:07:24.873Z,0.00
2019-02-07T06:08:24.908Z,0.00
2019-02-07T06:09:24.951Z,0.00
2019-02-07T06:10:24.982Z,0.00
2019-02-07T06:11:25.020Z,0.00
2019-02-07T06:12:25.059Z,0.00
2019-02-07T06:13:25.095Z,0.00
2019-02-07T06:14:25.124Z,0.00
2019-02-07T06:15:25.167Z,0.00
2019-02-07T06:16:25.195Z,0.00
2019-02-07T06:17:25.233Z,0.00
2019-02-07T06:18:25.267Z,0.00
2019-02-07T06:19:25.308Z,0.00
2019-02-07T06:20:25.352Z,0.00
2019-02-07T06:21:25.376Z,0.00
2019-02-07T06:22:25.413Z,0.00
2019-02-07T06:23:25.455Z,0.00
2019-02-07T06:24:25.485Z,0.00
2019-02-07T06:25:25.521Z,0.00
2019-02-07T06:26:25.557Z,0.00
2019-02-07T06:27:25.592Z,0.00
2019-02-07T06:28:25.638Z,0.00
2019-02-07T06:29:25.676Z,0.00
2019-02-07T06:30:25.700Z,0.00
2019-02-07T06:31:25.734Z,0.00
2019-02-07T06:32:25.771Z,0.00
2019-02-07T06:33:25.808Z,0.00
2019-02-07T06:34:29.007Z,0.00
2019-02-07T06:35:25.989Z,0.00
2019-02-07T06:36:25.917Z,0.00
2019-02-07T06:37:25.959Z,0.00
2019-02-07T06:38:25.991Z,0.00
2019-02-07T06:39:28.369Z,0.00
2019-02-07T06:40:26.123Z,0.00
2019-02-07T06:41:26.098Z,0.00
2019-02-07T06:42:26.206Z,0.00
2019-02-07T06:43:26.168Z,0.00
2019-02-07T06:44:26.208Z,0.00
2019-02-07T06:45:26.241Z,0.00
2019-02-07T06:46:26.278Z,0.00
2019-02-07T06:47:26.320Z,0.00
2019-02-07T06:48:26.347Z,0.00
2019-02-07T06:49:26.392Z,0.00
2019-02-07T06:50:26.420Z,0.00
2019-02-07T06:51:26.460Z,0.00
2019-02-07T06:52:26.508Z,0.00
2019-02-07T06:53:26.538Z,0.00
2019-02-07T06:54:26.567Z,0.00
2019-02-07T06:55:26.603Z,0.00
2019-02-07T06:56:26.639Z,5.63
2019-02-07T06:57:26.679Z,5.63
2019-02-07T06:58:26.710Z,5.63
2019-02-07T06:59:26.745Z,5.63
2019-02-07T07:00:26.780Z,5.63
2019-02-07T07:01:26.819Z,5.63
2019-02-07T07:02:26.956Z,5.63
2019-02-07T07:03:26.890Z,5.63
2019-02-07T07:04:26.926Z,5.63
2019-02-07T07:05:26.962Z,5.63
2019-02-07T07:06:27.004Z,5.63
2019-02-07T07:07:27.035Z,5.63
2019-02-07T07:08:27.070Z,11.25
2019-02-07T07:09:27.108Z,11.25
2019-02-07T07:10:27.143Z,11.25
2019-02-07T07:11:27.178Z,11.25
2019-02-07T07:12:27.220Z,11.25
2019-02-07T07:13:27.249Z,11.25
2019-02-07T07:14:27.288Z,11.25
2019-02-07T07:15:27.321Z,16.88
2019-02-07T07:16:27.366Z,16.88
2019-02-07T07:17:27.611Z,16.88
2019-02-07T07:18:27.433Z,16.88
2019-02-07T07:19:27.465Z,16.88
2019-02-07T07:20:27.500Z,16.88
2019-02-07T07:21:27.536Z,22.50
2019-02-07T07:22:27.575Z,22.50
2019-02-07T07:23:27.609Z,22.50
2019-02-07T07:24:27.646Z,28.13
2019-02-07T07:25:27.682Z,33.75
2019-02-07T07:26:27.717Z,33.75
2019-02-07T07:27:27.753Z,39.38
2019-02-07T07:28:27.788Z,45.00
2019-02-07T07:29:27.826Z,45.00
2019-02-07T07:30:27.860Z,45.00
2019-02-07T07:31:27.895Z,50.63
2019-02-07T07:32:27.932Z,50.63
2019-02-07T07:33:27.975Z,50.63
2019-02-07T07:34:28.017Z,45.00
2019-02-07T07:35:28.134Z,45.00
2019-02-07T07:36:28.200Z,45.00
2019-02-07T07:37:28.215Z,45.00
2019-02-07T07:38:28.363Z,45.00
2019-02-07T07:39:28.293Z,45.00
2019-02-07T07:40:28.317Z,39.38
2019-02-07T07:41:28.258Z,39.38
2019-02-07T07:42:28.415Z,39.38
2019-02-07T07:43:30.382Z,39.38
2019-02-07T07:44:28.468Z,39.38
2019-02-07T07:45:28.519Z,39.38
2019-02-07T07:46:28.439Z,39.38
2019-02-07T07:47:35.708Z,45.00
2019-02-07T07:48:28.509Z,45.00
2019-02-07T07:49:28.551Z,45.00
2019-02-07T07:50:28.583Z,45.00
2019-02-07T07:51:28.616Z,45.00
2019-02-07T07:52:28.656Z,39.38
2019-02-07T07:53:28.691Z,39.38
2019-02-07T07:54:28.727Z,33.75
2019-02-07T07:55:28.763Z,33.75
2019-02-07T07:56:28.800Z,33.75
2019-02-07T07:57:28.945Z,39.38
2019-02-07T07:58:28.872Z,39.38
2019-02-07T07:59:28.917Z,45.00
2019-02-07T08:00:28.947Z,45.00
2019-02-07T08:01:28.981Z,45.00
2019-02-07T08:02:29.016Z,50.63
2019-02-07T08:03:29.052Z,50.63
2019-02-07T08:04:29.091Z,50.63
2019-02-07T08:05:29.125Z,56.25
2019-02-07T08:06:29.164Z,56.25
2019-02-07T08:07:29.200Z,56.25
2019-02-07T08:08:29.234Z,61.88
2019-02-07T08:09:29.271Z,61.88
2019-02-07T08:10:29.317Z,67.50
2019-02-07T08:11:29.345Z,73.13
2019-02-07T08:12:29.380Z,73.13
2019-02-07T08:13:29.422Z,73.13
2019-02-07T08:14:29.453Z,67.50
2019-02-07T08:15:29.491Z,67.50
2019-02-07T08:16:29.584Z,67.50
2019-02-07T08:17:29.563Z,67.50
2019-02-07T08:18:29.600Z,61.88
2019-02-07T08:19:29.638Z,61.88
2019-02-07T08:20:29.679Z,56.25
2019-02-07T08:21:29.708Z,56.25
2019-02-07T08:22:29.744Z,56.25
2019-02-07T08:23:29.789Z,61.88
2019-02-07T08:24:29.818Z,61.88
2019-02-07T08:25:29.860Z,61.88
2019-02-07T08:26:29.891Z,61.88
2019-02-07T08:27:29.928Z,56.25
2019-02-07T08:28:29.962Z,56.25
2019-02-07T08:29:30.001Z,50.63
2019-02-07T08:30:36.494Z,45.00
2019-02-07T08:31:30.074Z,50.63
2019-02-07T08:32:30.119Z,50.63
2019-02-07T08:33:30.148Z,50.63
2019-02-07T08:34:30.184Z,56.25
2019-02-07T08:35:30.219Z,56.25
2019-02-07T08:36:30.259Z,56.25
2019-02-07T08:37:30.294Z,56.25
2019-02-07T08:38:30.336Z,61.88
2019-02-07T08:39:30.367Z,56.25
2019-02-07T08:40:30.404Z,50.63
2019-02-07T08:41:30.440Z,45.00
2019-02-07T08:42:30.528Z,50.63
2019-02-07T08:43:30.516Z,50.63
2019-02-07T08:44:30.558Z,50.63
2019-02-07T08:45:30.587Z,50.63
2019-02-07T08:46:30.624Z,50.63
2019-02-07T08:47:30.673Z,50.63
2019-02-07T08:48:30.698Z,50.63
2019-02-07T08:49:30.735Z,56.25
2019-02-07T08:50:30.776Z,56.25
2019-02-07T08:51:30.807Z,61.88
2019-02-07T08:52:30.844Z,61.88
2019-02-07T08:53:30.882Z,61.88
2019-02-07T08:54:30.926Z,61.88
2019-02-07T08:55:30.962Z,73.13
2019-02-07T08:56:30.995Z,73.13
2019-02-07T08:57:31.029Z,73.13
2019-02-07T08:58:31.065Z,78.75
2019-02-07T08:59:31.115Z,84.38
2019-02-07T09:00:31.137Z,95.63
2019-02-07T09:01:31.174Z,101.25
2019-02-07T09:02:31.214Z,101.25
2019-02-07T09:03:31.247Z,84.38
2019-02-07T09:04:31.283Z,73.13
2019-02-07T09:05:31.327Z,73.13
2019-02-07T09:06:31.357Z,67.50
2019-02-07T09:07:32.201Z,73.13
2019-02-07T09:08:31.431Z,78.75
2019-02-07T09:09:31.471Z,84.38
2019-02-07T09:10:31.521Z,84.38
2019-02-07T09:11:31.543Z,78.75
2019-02-07T09:12:31.587Z,78.75
2019-02-07T09:13:31.615Z,84.38
2019-02-07T09:14:31.655Z,78.75
2019-02-07T09:15:31.698Z,73.13
2019-02-07T09:16:31.726Z,78.75
2019-02-07T09:17:31.763Z,78.75
2019-02-07T09:18:31.800Z,73.13
2019-02-07T09:19:31.837Z,73.13
2019-02-07T09:20:31.874Z,67.50
2019-02-07T09:21:31.915Z,67.50
2019-02-07T09:22:31.953Z,61.88
2019-02-07T09:23:31.988Z,61.88
2019-02-07T09:24:32.087Z,61.88
2019-02-07T09:25:34.434Z,56.25
2019-02-07T09:26:32.096Z,56.25
2019-02-07T09:27:32.134Z,56.25
2019-02-07T09:28:32.176Z,56.25
2019-02-07T09:29:32.299Z,56.25
2019-02-07T09:30:32.244Z,61.88
2019-02-07T09:31:32.280Z,67.50
2019-02-07T09:32:32.324Z,67.50
2019-02-07T09:33:32.361Z,73.13
2019-02-07T09:34:32.389Z,73.13
2019-02-07T09:35:32.435Z,78.75
2019-02-07T09:36:32.463Z,78.75
2019-02-07T09:37:32.571Z,78.75
2019-02-07T09:38:32.536Z,78.75
2019-02-07T09:39:32.573Z,73.13
2019-02-07T09:40:32.612Z,73.13
2019-02-07T09:41:32.660Z,73.13
2019-02-07T09:42:32.684Z,67.50
2019-02-07T09:43:32.720Z,61.88
2019-02-07T09:44:32.760Z,61.88
2019-02-07T09:45:32.794Z,67.50
2019-02-07T09:46:32.832Z,67.50
2019-02-07T09:47:32.866Z,73.13
2019-02-07T09:48:32.904Z,84.38
2019-02-07T09:49:32.950Z,90.00
2019-02-07T09:50:32.978Z,90.00
2019-02-07T09:51:33.016Z,84.38
2019-02-07T09:52:33.052Z,73.13
2019-02-07T09:53:33.089Z,73.13
2019-02-07T09:54:33.175Z,73.13
2019-02-07T09:55:33.161Z,73.13
2019-02-07T09:56:33.202Z,78.75
2019-02-07T09:57:33.235Z,78.75
2019-02-07T09:58:33.273Z,78.75
2019-02-07T09:59:33.319Z,84.38
2019-02-07T10:00:33.354Z,78.75
2019-02-07T10:01:33.383Z,78.75
2019-02-07T10:02:33.476Z,84.38
2019-02-07T10:03:33.456Z,84.38
2019-02-07T10:04:33.492Z,73.13
2019-02-07T10:05:33.531Z,73.13
2019-02-07T10:06:33.567Z,73.13
2019-02-07T10:07:33.602Z,78.75
2019-02-07T10:08:33.639Z,78.75
2019-02-07T10:09:33.686Z,73.13
2019-02-07T10:10:33.715Z,73.13
2019-02-07T10:11:33.749Z,67.50
2019-02-07T10:12:33.789Z,73.13
2019-02-07T10:13:33.832Z,78.75
2019-02-07T10:14:33.868Z,84.38
2019-02-07T10:15:33.913Z,84.38
2019-02-07T10:16:33.946Z,90.00
2019-02-07T10:17:33.971Z,90.00
2019-02-07T10:18:34.008Z,95.63
2019-02-07T10:19:34.050Z,112.50
2019-02-07T10:20:34.082Z,118.13
2019-02-07T10:21:34.134Z,112.50
2019-02-07T10:22:34.156Z,112.50
2019-02-07T10:23:34.194Z,129.38
2019-02-07T10:24:34.228Z,146.25
2019-02-07T10:25:34.278Z,151.88
2019-02-07T10:26:34.304Z,129.38
2019-02-07T10:27:34.346Z,123.75
2019-02-07T10:28:34.380Z,118.13
2019-02-07T10:29:34.424Z,106.88
2019-02-07T10:30:34.451Z,112.50
2019-02-07T10:31:34.490Z,129.38
2019-02-07T10:32:34.533Z,112.50
2019-02-07T10:33:34.563Z,101.25
2019-02-07T10:34:34.605Z,118.13
2019-02-07T10:35:34.644Z,140.63
2019-02-07T10:36:34.670Z,151.88
2019-02-07T10:37:34.717Z,151.88
2019-02-07T10:38:34.743Z,146.25
2019-02-07T10:39:34.780Z,123.75
2019-02-07T10:40:34.819Z,90.00
2019-02-07T10:41:34.859Z,78.75
2019-02-07T10:42:34.893Z,78.75
2019-02-07T10:43:34.929Z,78.75
2019-02-07T10:44:34.967Z,67.50
2019-02-07T10:45:35.006Z,61.88
2019-02-07T10:46:35.041Z,73.13
2019-02-07T10:47:35.127Z,78.75
2019-02-07T10:48:44.178Z,78.75
2019-02-07T10:49:35.157Z,73.13
2019-02-07T10:50:35.191Z,78.75
2019-02-07T10:51:35.232Z,73.13
2019-02-07T10:52:35.259Z,78.75
2019-02-07T10:53:35.299Z,95.63
2019-02-07T10:54:35.333Z,95.63
2019-02-07T10:55:35.371Z,101.25
2019-02-07T10:56:35.410Z,106.88
2019-02-07T10:57:35.446Z,106.88
2019-02-07T10:58:35.485Z,112.50
2019-02-07T10:59:35.516Z,135.00
2019-02-07T11:00:35.555Z,146.25
2019-02-07T11:01:35.593Z,157.50
2019-02-07T11:02:35.643Z,140.63
2019-02-07T11:03:35.666Z,123.75
2019-02-07T11:04:35.714Z,112.50
2019-02-07T11:05:35.746Z,101.25
2019-02-07T11:06:35.778Z,106.88
2019-02-07T11:07:35.815Z,112.50
2019-02-07T11:08:35.851Z,123.75
2019-02-07T11:09:35.897Z,129.38
2019-02-07T11:10:35.941Z,140.63
2019-02-07T11:11:35.969Z,146.25
2019-02-07T11:12:35.999Z,146.25
2019-02-07T11:13:36.038Z,140.63
2019-02-07T11:14:36.076Z,146.25
2019-02-07T11:15:36.111Z,129.38
2019-02-07T11:16:36.149Z,123.75
2019-02-07T11:17:36.186Z,129.38
2019-02-07T11:18:36.291Z,140.63
2019-02-07T11:19:36.258Z,118.13
2019-02-07T11:20:36.304Z,106.88
2019-02-07T11:21:36.334Z,123.75
2019-02-07T11:22:36.371Z,123.75
2019-02-07T11:23:36.416Z,101.25
2019-02-07T11:24:36.444Z,78.75
2019-02-07T11:25:36.488Z,67.50
2019-02-07T11:26:36.518Z,61.88
2019-02-07T11:27:36.559Z,56.25
2019-02-07T11:28:36.591Z,61.88
2019-02-07T11:29:36.628Z,67.50
2019-02-07T11:30:36.669Z,73.13
2019-02-07T11:31:36.713Z,73.13
2019-02-07T11:32:36.741Z,73.13
2019-02-07T11:33:36.777Z,73.13
2019-02-07T11:34:36.817Z,73.13
2019-02-07T11:35:36.859Z,78.75
2019-02-07T11:36:36.899Z,78.75
2019-02-07T11:37:36.925Z,78.75
2019-02-07T11:38:36.962Z,78.75
2019-02-07T11:39:37.001Z,78.75
2019-02-07T11:40:37.046Z,78.75
2019-02-07T11:41:37.077Z,78.75
2019-02-07T11:42:37.111Z,78.75
2019-02-07T11:43:37.147Z,67.50
2019-02-07T11:44:37.188Z,50.63
2019-02-07T11:45:37.280Z,56.25
2019-02-07T11:46:37.818Z,67.50
2019-02-07T11:47:37.303Z,73.13
2019-02-07T11:48:37.357Z,67.50
2019-02-07T11:49:37.428Z,73.13
2019-02-07T11:50:37.405Z,67.50
2019-02-07T11:51:37.444Z,73.13
2019-02-07T11:52:37.485Z,78.75
2019-02-07T11:53:37.523Z,78.75
2019-02-07T11:54:37.553Z,90.00
2019-02-07T11:55:37.589Z,95.63
2019-02-07T11:56:37.626Z,90.00
2019-02-07T11:57:37.663Z,90.00
2019-02-07T11:58:37.701Z,84.38
2019-02-07T11:59:37.738Z,73.13
2019-02-07T12:00:37.780Z,73.13
2019-02-07T12:01:37.814Z,73.13
2019-02-07T12:02:37.862Z,67.50
2019-02-07T12:03:37.884Z,67.50
2019-02-07T12:04:37.923Z,67.50
2019-02-07T12:05:37.959Z,73.13
2019-02-07T12:06:37.997Z,73.13
2019-02-07T12:07:38.034Z,78.75
2019-02-07T12:08:38.071Z,73.13
2019-02-07T12:09:38.106Z,78.75
2019-02-07T12:10:38.144Z,78.75
2019-02-07T12:11:38.181Z,78.75
2019-02-07T12:12:38.225Z,84.38
2019-02-07T12:13:38.255Z,90.00
2019-02-07T12:14:38.292Z,90.00
2019-02-07T12:15:38.329Z,95.63
2019-02-07T12:16:38.363Z,106.88
2019-02-07T12:17:38.400Z,112.50
2019-02-07T12:18:38.439Z,118.13
2019-02-07T12:19:38.482Z,112.50
2019-02-07T12:20:38.515Z,106.88
2019-02-07T12:21:38.572Z,95.63
2019-02-07T12:22:38.587Z,90.00
2019-02-07T12:23:38.640Z,84.38
2019-02-07T12:24:38.665Z,101.25
2019-02-07T12:25:38.701Z,129.38
2019-02-07T12:26:38.742Z,140.63
2019-02-07T12:27:38.771Z,123.75
2019-02-07T12:28:38.808Z,123.75
2019-02-07T12:29:38.847Z,112.50
2019-02-07T12:30:38.892Z,118.13
2019-02-07T12:31:38.929Z,118.13
2019-02-07T12:33:38.994Z,123.75
2019-02-07T12:34:39.038Z,135.00
2019-02-07T12:35:39.069Z,135.00
2019-02-07T12:36:39.104Z,140.63
2019-02-07T12:37:39.146Z,146.25
2019-02-07T12:38:39.183Z,135.00
2019-02-07T12:39:39.237Z,123.75
2019-02-07T12:40:39.253Z,112.50
2019-02-07T12:41:39.295Z,123.75
2019-02-07T12:42:39.329Z,129.38
2019-02-07T12:43:39.388Z,118.13
2019-02-07T12:44:39.404Z,129.38
2019-02-07T12:45:39.440Z,123.75
2019-02-07T12:46:39.475Z,118.13
2019-02-07T12:47:39.511Z,106.88
2019-02-07T12:48:39.548Z,101.25
2019-02-07T12:49:39.732Z,90.00
2019-02-07T12:50:39.648Z,84.38
2019-02-07T12:51:39.679Z,78.75
2019-02-07T12:52:39.697Z,73.13
2019-02-07T12:53:39.753Z,67.50
2019-02-07T12:54:39.812Z,67.50
2019-02-07T12:55:39.822Z,67.50
2019-02-07T12:56:39.912Z,67.50
2019-02-07T12:57:39.924Z,67.50
2019-02-07T12:58:39.924Z,61.88
2019-02-07T12:59:39.967Z,67.50
2019-02-07T13:00:40.002Z,67.50
2019-02-07T13:01:40.106Z,67.50
2019-02-07T13:02:40.071Z,67.50
2019-02-07T13:03:40.107Z,67.50
2019-02-07T13:04:40.143Z,61.88